Time;durP1;ratioP1;P1;durP2;ratioP2;P2;SDS_P1;SDS_P2;PMS_P1;PMS_P2;Temp;Humidity;BMP_temperature;BMP_pressure;BME280_temperature;BME280_humidity;BME280_pressure;Samples;Min_cycle;Max_cycle;Signal;HPM_P1;HPM_P2
2022/03/26 00:00:50;;;;;;;;;;;7.10;78.30;;;6.47;53.04;98199.94;5068441;28;20019;-83
2022/03/26 00:03:15;;;;;;;;;;;7.10;78.30;;;6.41;53.49;98200.00;5053130;28;19923;-83
2022/03/26 00:05:43;;;;;;;;;;;7.10;78.50;;;6.53;53.26;98217.34;5064802;28;19939;-83
2022/03/26 00:08:10;;;;;;;;;;;7.10;78.70;;;6.37;53.60;98196.53;5067863;28;19932;-83
2022/03/26 00:10:36;;;;;;;;;;;7.00;78.90;;;6.45;54.85;98218.28;5061887;28;20090;-83
2022/03/26 00:13:03;;;;;;;;;;;7.00;79.90;;;6.35;55.15;98213.13;5068103;28;20292;-83
2022/03/26 00:15:28;;;;;;;;;;;6.90;80.30;;;6.27;55.24;98203.56;5066146;28;20217;-83
2022/03/26 00:17:55;;;;;;;;;;;6.90;81.30;;;6.36;54.78;98227.97;5065213;28;19916;-83
2022/03/26 00:20:20;;;;;;;;;;;6.80;79.90;;;6.37;54.98;98227.06;5066522;28;20010;-83
2022/03/26 00:22:47;;;;;;;;;;;6.80;80.20;;;6.30;54.89;98218.41;5066060;28;19952;-83
2022/03/26 00:25:15;;;;;;;;;;;6.90;80.30;;;6.20;55.49;98207.09;5068309;28;19978;-83
2022/03/26 00:27:41;;;;;;;;;;;6.80;80.70;;;6.28;55.49;98220.13;5066570;28;19912;-83
2022/03/26 00:30:07;;;;;;;;;;;6.80;80.80;;;6.17;55.63;98199.25;5069481;28;20408;-83
2022/03/26 00:32:33;;;;;;;;;;;6.80;81.00;;;6.27;55.80;98214.03;5068953;28;20549;-83
2022/03/26 00:34:59;;;;;;;;;;;6.80;81.00;;;6.09;55.69;98198.44;5063884;28;19920;-83
2022/03/26 00:37:25;;;;;;;;;;;6.70;80.90;;;6.09;56.53;98201.06;5090439;28;19917;-82
2022/03/26 00:39:50;;;;;;;;;;;6.70;81.60;;;6.17;56.79;98217.59;5090952;28;20427;-83
2022/03/26 00:42:16;;;;;;;;;;;6.70;82.00;;;6.02;57.80;98213.31;5070431;28;19970;-83
2022/03/26 00:44:42;;;;;;;;;;;6.60;82.60;;;5.89;57.47;98202.03;5066663;28;19931;-83
2022/03/26 00:47:08;;;;;;;;;;;6.50;82.60;;;5.93;57.30;98215.97;5087125;28;20531;-83
2022/03/26 00:49:34;;;;;;;;;;;6.40;82.20;;;5.64;57.71;98179.47;5052506;28;20393;-82
2022/03/26 00:51:59;;;;;;;;;;;6.40;82.70;;;5.84;58.30;98224.72;5087653;28;20275;-82
2022/03/26 00:54:25;;;;;;;;;;;6.40;83.00;;;5.72;57.82;98214.31;5083569;28;19921;-82
2022/03/26 00:56:51;;;;;;;;;;;6.30;82.90;;;5.64;58.47;98216.97;5063515;28;19922;-83
2022/03/26 00:59:17;;;;;;;;;;;6.30;83.20;;;5.62;58.41;98220.50;5064306;28;19924;-82
2022/03/26 01:01:42;;;;;;;;;;;6.20;83.10;;;5.65;58.11;98225.69;5062388;28;19931;-83
2022/03/26 01:04:08;;;;;;;;;;;6.20;83.20;;;5.53;58.40;98200.47;5072776;28;20016;-83
2022/03/26 01:06:34;;;;;;;;;;;6.10;83.40;;;5.59;58.85;98221.34;5066914;28;19924;-84
2022/03/26 01:08:59;;;;;;;;;;;6.10;83.70;;;5.50;59.44;98224.88;5088517;28;19931;-83
2022/03/26 01:11:25;;;;;;;;;;;6.10;84.20;;;5.46;60.19;98220.53;5089743;28;19916;-83
2022/03/26 01:13:53;;;;;;;;;;;6.00;84.80;;;5.33;60.25;98205.75;5073595;28;19921;-85
2022/03/26 01:16:19;;;;;;;;;;;6.00;84.70;;;5.35;60.88;98214.47;5069294;28;20331;-82
2022/03/26 01:18:44;;;;;;;;;;;6.00;85.20;;;5.12;60.57;98175.31;5075726;28;20034;-83
2022/03/26 01:21:10;;;;;;;;;;;6.00;85.00;;;5.26;61.32;98199.66;5065478;28;19932;-83
2022/03/26 01:23:36;;;;;;;;;;;6.00;85.60;;;5.28;61.01;98208.38;5050621;28;19939;-83
2022/03/26 01:26:02;;;;;;;;;;;6.00;85.50;;;5.12;60.53;98178.78;5071486;28;19924;-83
2022/03/26 01:28:30;;;;;;;;;;;6.00;85.20;;;5.29;60.95;98198.78;5085084;28;20059;-83
2022/03/26 01:30:57;;;;;;;;;;;6.00;85.30;;;5.17;61.38;98184.00;5049618;28;19916;-84
2022/03/26 01:33:23;;;;;;;;;;;6.00;85.90;;;5.10;61.75;98174.44;5074162;28;19924;-83
2022/03/26 01:35:48;;;;;;;;;;;5.90;86.10;;;5.19;60.93;98199.66;5082018;28;19928;-82
2022/03/26 01:38:14;;;;;;;;;;;5.90;85.60;;;5.29;60.95;98222.31;5082584;28;20701;-82
2022/03/26 01:40:40;;;;;;;;;;;5.80;85.40;;;5.23;61.40;98204.91;5086157;28;19977;-83
2022/03/26 01:43:06;;;;;;;;;;;5.80;85.90;;;5.21;60.80;98193.59;5064677;28;19917;-82
2022/03/26 01:45:32;;;;;;;;;;;5.80;85.90;;;5.34;60.49;98216.19;5084484;28;19928;-82
2022/03/26 01:47:58;;;;;;;;;;;5.80;85.40;;;5.33;60.83;98209.25;5062870;28;19916;-82
2022/03/26 01:50:25;;;;;;;;;;;5.80;85.80;;;5.31;61.51;98213.59;5065926;28;19931;-83
2022/03/26 01:52:51;;;;;;;;;;;5.80;86.30;;;5.08;61.41;98182.28;5052057;28;19961;-83
2022/03/26 01:55:18;;;;;;;;;;;5.80;86.20;;;5.22;61.49;98215.38;5082407;28;19932;-82
2022/03/26 01:57:43;;;;;;;;;;;5.70;86.30;;;4.98;62.13;98181.41;5066706;28;19952;-82
2022/03/26 02:00:09;;;;;;;;;;;5.70;86.60;;;4.97;61.99;98184.03;5086722;28;19920;-84
2022/03/26 02:02:35;;;;;;;;;;;5.60;86.70;;;4.88;62.94;98189.28;5082898;28;20321;-83
2022/03/26 02:05:01;;;;;;;;;;;5.60;87.30;;;4.79;63.60;98187.53;5065489;28;19949;-83
2022/03/26 02:07:26;;;;;;;;;;;5.50;87.30;;;4.66;63.36;98164.94;5058599;28;19916;-83
2022/03/26 02:09:52;;;;;;;;;;;5.50;87.70;;;4.71;63.88;98187.56;5064856;28;19928;-83
2022/03/26 02:12:28;;;;;;;;;;;5.50;88.20;;;4.78;63.51;98199.75;5069779;28;20214;-83
2022/03/26 02:14:56;;;;;;;;;;;5.50;88.10;;;4.84;64.18;98213.69;5053315;28;19931;-83
2022/03/26 02:17:22;;;;;;;;;;;5.40;88.20;;;4.77;64.17;98202.38;5069228;28;20429;-83
2022/03/26 02:19:58;;;;;;;;;;;5.40;88.40;;;4.51;63.93;98160.59;5067941;28;19916;-83
2022/03/26 02:22:25;;;;;;;;;;;5.30;88.30;;;4.80;63.79;98209.34;5066353;28;19999;-83
2022/03/26 02:24:51;;;;;;;;;;;5.30;88.30;;;4.75;64.08;98202.38;5064339;28;19931;-86
2022/03/26 02:27:17;;;;;;;;;;;5.30;88.50;;;4.64;64.91;98185.81;5063848;28;19919;-83
2022/03/26 02:29:42;;;;;;;;;;;5.30;89.10;;;4.55;64.81;98164.94;5065852;28;19924;-83
2022/03/26 02:32:08;;;;;;;;;;;5.30;88.90;;;4.54;64.63;98168.41;5061377;28;19923;-83
2022/03/26 02:34:34;;;;;;;;;;;5.30;89.10;;;4.74;64.64;98198.03;5064132;28;20646;-83
2022/03/26 02:37:00;;;;;;;;;;;5.30;88.90;;;4.59;65.01;98174.50;5062881;28;19916;-84
2022/03/26 02:39:28;;;;;;;;;;;5.30;89.40;;;4.47;64.98;98158.84;5066849;28;19931;-83
2022/03/26 02:41:53;;;;;;;;;;;5.20;89.30;;;4.69;64.98;98198.91;5066074;28;19920;-83
2022/03/26 02:44:19;;;;;;;;;;;5.20;89.40;;;4.67;64.05;98188.44;5068951;28;19924;-84
2022/03/26 02:46:45;;;;;;;;;;;5.20;88.80;;;4.69;63.08;98188.44;5068818;28;20126;-83
2022/03/26 02:49:15;;;;;;;;;;;5.30;88.40;;;4.69;63.33;98191.06;5081776;28;20372;-83
2022/03/26 02:51:42;;;;;;;;;;;5.30;88.40;;;4.74;64.93;98197.16;5071867;28;20374;-82
2022/03/26 02:54:18;;;;;;;;;;;5.30;89.50;;;4.50;65.58;98169.28;5089646;28;20340;-82
2022/03/26 02:56:50;;;;;;;;;;;5.20;90.00;;;4.62;65.07;98195.41;5075351;28;19963;-83
2022/03/26 02:59:17;;;;;;;;;;;5.20;89.90;;;4.46;64.94;98185.84;5068329;28;19927;-83
2022/03/26 03:01:43;;;;;;;;;;;5.20;89.70;;;4.38;65.03;98176.28;5066511;28;19920;-83
2022/03/26 03:04:08;;;;;;;;;;;5.10;89.90;;;4.41;65.14;98178.00;5069906;28;19965;-84
2022/03/26 03:06:35;;;;;;;;;;;5.10;89.80;;;4.45;64.82;98191.94;5083674;28;20324;-83
2022/03/26 03:09:04;;;;;;;;;;;5.10;89.60;;;4.56;64.20;98200.66;5059707;28;19923;-82
2022/03/26 03:11:30;;;;;;;;;;;5.10;89.40;;;4.57;64.01;98208.47;5066356;28;19939;-82
2022/03/26 03:13:56;;;;;;;;;;;5.10;89.40;;;4.16;64.43;98141.44;5079764;28;19916;-82
2022/03/26 03:16:22;;;;;;;;;;;5.10;89.70;;;4.37;64.23;98166.69;5065878;28;19955;-83
2022/03/26 03:18:47;;;;;;;;;;;5.10;89.50;;;4.45;64.73;98182.38;5067508;28;19916;-82
2022/03/26 03:21:13;;;;;;;;;;;5.10;89.80;;;4.43;65.34;98167.56;5066998;28;19919;-82
2022/03/26 03:23:39;;;;;;;;;;;5.00;90.20;;;4.38;65.29;98172.78;5083230;28;19924;-82
2022/03/26 03:26:04;;;;;;;;;;;5.00;90.20;;;4.36;66.24;98177.13;5080866;28;19961;-83
2022/03/26 03:28:30;;;;;;;;;;;5.00;90.30;;;4.34;66.76;98184.09;5049610;28;20398;-83
2022/03/26 03:30:55;;;;;;;;;;;5.00;90.60;;;4.25;67.77;98171.03;5068293;28;19920;-83
2022/03/26 03:33:21;;;;;;;;;;;4.90;90.90;;;4.16;67.49;98157.13;5069494;28;19916;-84
2022/03/26 03:35:47;;;;;;;;;;;4.90;90.90;;;4.30;67.94;98182.34;5050942;28;19939;-83
2022/03/26 03:38:13;;;;;;;;;;;4.90;91.00;;;4.14;68.03;98165.81;5062517;28;19978;-83
2022/03/26 03:40:38;;;;;;;;;;;4.80;91.10;;;4.13;67.73;98172.78;5059779;28;19962;-83
2022/03/26 03:43:05;;;;;;;;;;;4.70;91.00;;;4.14;67.21;98176.25;5063173;28;20367;-84
2022/03/26 03:45:30;;;;;;;;;;;4.70;90.90;;;4.12;67.33;98178.00;5061448;28;19970;-83
2022/03/26 03:47:56;;;;;;;;;;;4.70;90.90;;;3.90;67.18;98149.25;5058200;28;19951;-83
2022/03/26 03:50:22;;;;;;;;;;;4.60;90.80;;;3.95;67.28;98150.13;5077390;28;19924;-84
2022/03/26 03:52:48;;;;;;;;;;;4.70;90.90;;;3.87;68.11;98141.41;5060649;28;19948;-83
2022/03/26 03:55:13;;;;;;;;;;;4.60;91.20;;;3.60;68.20;98117.00;5075746;28;19932;-83
2022/03/26 03:57:42;;;;;;;;;;;4.60;91.20;;;3.87;69.83;98157.06;5060609;28;19930;-83
2022/03/26 04:00:12;;;;;;;;;;;4.60;91.80;;;3.88;70.19;98171.00;5061020;28;19916;-84
2022/03/26 04:02:39;;;;;;;;;;;4.50;91.90;;;3.88;69.22;98190.13;5077942;28;19931;-83
2022/03/26 04:05:05;;;;;;;;;;;4.50;91.70;;;3.76;68.85;98169.22;5043460;28;20027;-83
2022/03/26 04:07:30;;;;;;;;;;;4.40;91.50;;;3.39;69.16;98099.56;5079847;28;20014;-83
2022/03/26 04:09:56;;;;;;;;;;;4.40;91.80;;;3.70;68.91;98158.78;5065177;28;20476;-84
2022/03/26 04:12:21;;;;;;;;;;;4.50;91.60;;;3.70;68.01;98140.53;5066367;28;19916;-83
2022/03/26 04:14:47;;;;;;;;;;;4.40;91.50;;;3.85;67.61;98156.19;5068118;28;20192;-84
2022/03/26 04:17:13;;;;;;;;;;;4.50;91.30;;;3.97;67.36;98168.41;5065657;28;19924;-84
2022/03/26 04:19:41;;;;;;;;;;;4.50;91.20;;;3.97;67.34;98168.41;5068498;28;19916;-85
2022/03/26 04:22:07;;;;;;;;;;;4.60;91.30;;;3.91;68.21;98164.06;5062550;28;19985;-83
2022/03/26 04:24:35;;;;;;;;;;;4.60;91.40;;;3.76;69.41;98149.22;5076816;28;20385;-83
2022/03/26 04:27:01;;;;;;;;;;;4.50;91.90;;;3.82;70.04;98177.03;5083446;28;20127;-83
2022/03/26 04:29:27;;;;;;;;;;;4.50;92.10;;;3.81;70.89;98183.16;5048166;28;19916;-85
2022/03/26 04:31:52;;;;;;;;;;;4.40;92.30;;;3.61;70.11;98151.81;5067625;28;19942;-86
2022/03/26 04:34:19;;;;;;;;;;;4.40;92.20;;;3.63;70.12;98166.56;5103451;28;19953;-86
2022/03/26 04:36:44;;;;;;;;;;;4.30;92.20;;;3.70;69.99;98177.03;5080337;28;19943;-84
2022/03/26 04:39:10;;;;;;;;;;;4.30;92.20;;;3.64;70.49;98172.66;5060201;28;19920;-83
2022/03/26 04:41:35;;;;;;;;;;;4.30;92.40;;;3.60;70.67;98165.69;5065571;28;19916;-84
2022/03/26 04:44:02;;;;;;;;;;;4.30;92.40;;;3.65;70.70;98166.59;5065562;28;19923;-83
2022/03/26 04:46:28;;;;;;;;;;;4.30;92.50;;;3.46;70.17;98144.78;5079285;28;19924;-83
2022/03/26 04:48:53;;;;;;;;;;;4.30;92.40;;;3.63;70.06;98166.56;5065102;28;19924;-85
2022/03/26 04:51:19;;;;;;;;;;;4.30;92.30;;;3.67;70.80;98184.84;5084166;28;20014;-84
2022/03/26 04:53:45;;;;;;;;;;;4.20;92.60;;;3.50;71.27;98163.91;5065109;28;21287;-83
2022/03/26 04:56:10;;;;;;;;;;;4.20;92.70;;;3.44;72.14;98157.81;5079269;28;19924;-84
2022/03/26 04:58:36;;;;;;;;;;;4.20;93.10;;;3.37;71.80;98153.44;5069889;28;20029;-83
2022/03/26 05:01:02;;;;;;;;;;;4.10;93.10;;;3.45;71.78;98190.00;5063875;28;19956;-83
2022/03/26 05:03:28;;;;;;;;;;;4.10;93.00;;;3.36;72.75;98179.53;5055660;28;19912;-84
2022/03/26 05:05:53;;;;;;;;;;;4.00;93.40;;;3.16;73.71;98156.84;5085466;28;20434;-84
2022/03/26 05:08:19;;;;;;;;;;;4.00;93.70;;;3.13;73.38;98161.16;5066035;28;19917;-83
2022/03/26 05:10:45;;;;;;;;;;;4.00;93.70;;;3.01;73.38;98148.94;5063691;28;19973;-84
2022/03/26 05:13:11;;;;;;;;;;;4.00;93.60;;;3.31;73.29;98205.56;5068606;28;20010;-83
2022/03/26 05:15:37;;;;;;;;;;;4.00;93.60;;;3.27;73.97;98200.31;5066549;28;20407;-84
2022/03/26 05:18:03;;;;;;;;;;;3.90;93.90;;;3.13;73.75;98179.41;5086238;28;20012;-84
2022/03/26 05:20:29;;;;;;;;;;;3.90;93.90;;;3.30;73.34;98206.41;5055851;28;19912;-85
2022/03/26 05:22:54;;;;;;;;;;;3.90;93.80;;;3.03;74.08;98149.81;5062451;28;19930;-83
2022/03/26 05:25:20;;;;;;;;;;;3.90;94.20;;;3.36;74.31;98203.84;5081502;28;19946;-83
2022/03/26 05:27:51;;;;;;;;;;;4.00;94.40;;;3.39;73.94;98209.09;5072326;28;19961;-84
2022/03/26 05:30:17;;;;;;;;;;;4.00;94.20;;;3.43;74.25;98212.59;5063581;28;19924;-84
2022/03/26 05:32:43;;;;;;;;;;;4.00;94.40;;;3.24;74.16;98167.28;5068615;28;20159;-83
2022/03/26 05:35:13;;;;;;;;;;;4.00;94.40;;;3.43;73.89;98195.19;5065099;28;20195;-83
2022/03/26 05:37:41;;;;;;;;;;;4.10;94.40;;;3.27;73.13;98171.63;5088163;28;19924;-84
2022/03/26 05:40:07;;;;;;;;;;;4.10;94.10;;;3.52;72.86;98209.16;5071482;28;19916;-83
2022/03/26 05:42:35;;;;;;;;;;;4.10;94.10;;;3.54;73.12;98218.72;5069502;28;19977;-84
2022/03/26 05:45:05;;;;;;;;;;;4.20;94.10;;;3.47;72.72;98197.81;5086239;28;19924;-85
2022/03/26 05:47:31;;;;;;;;;;;4.20;94.10;;;3.59;72.96;98218.75;5068060;28;20604;-83
2022/03/26 05:49:57;;;;;;;;;;;4.20;94.20;;;3.68;72.60;98223.09;5073500;28;19915;-83
2022/03/26 05:52:23;;;;;;;;;;;4.30;94.20;;;3.71;73.20;98237.03;5082394;28;19973;-83
2022/03/26 05:54:49;;;;;;;;;;;4.30;94.30;;;3.52;73.42;98204.81;5045669;28;19958;-83
2022/03/26 05:57:15;;;;;;;;;;;4.40;94.40;;;3.65;72.43;98217.91;5068829;28;20422;-85
2022/03/26 05:59:40;;;;;;;;;;;4.30;94.10;;;3.66;72.47;98228.34;5066629;28;20400;-83
2022/03/26 06:02:06;;;;;;;;;;;4.40;94.10;;;3.77;72.09;98223.16;5061300;28;20453;-83
2022/03/26 06:04:33;;;;;;;;;;;4.50;94.00;;;3.89;72.29;98236.22;5070300;28;19940;-83
2022/03/26 06:06:59;;;;;;;;;;;4.50;94.10;;;3.97;72.03;98241.47;5065970;28;20401;-83
2022/03/26 06:09:24;;;;;;;;;;;4.60;94.10;;;3.91;72.14;98216.25;5076190;28;20274;-83
2022/03/26 06:11:50;;;;;;;;;;;4.60;94.10;;;3.97;71.32;98218.84;5082151;28;20038;-83
2022/03/26 06:14:17;;;;;;;;;;;4.70;93.90;;;4.19;71.24;98247.63;5065769;28;20377;-83
2022/03/26 06:16:45;;;;;;;;;;;4.80;94.00;;;4.12;71.05;98228.44;5069098;28;19924;-83
2022/03/26 06:19:12;;;;;;;;;;;4.80;93.90;;;4.27;70.94;98248.53;5068566;28;19944;-83
2022/03/26 06:21:38;;;;;;;;;;;4.90;93.80;;;4.34;71.15;98250.28;5084110;28;19954;-83
2022/03/26 06:24:04;;;;;;;;;;;5.00;93.90;;;4.47;70.40;98264.22;5064730;28;19924;-84
2022/03/26 06:26:30;;;;;;;;;;;5.10;93.70;;;4.37;69.72;98247.63;5065899;28;19916;-83
2022/03/26 06:28:56;;;;;;;;;;;5.10;93.50;;;4.57;69.75;98275.53;5065971;28;19953;-83
2022/03/26 06:31:22;;;;;;;;;;;5.20;93.40;;;4.51;69.71;98257.25;5084976;28;19948;-82
2022/03/26 06:33:48;;;;;;;;;;;5.20;93.40;;;4.67;69.98;98284.28;5066604;28;19916;-83
2022/03/26 06:36:14;;;;;;;;;;;5.20;93.50;;;4.45;70.07;98245.06;5064605;28;20427;-83
2022/03/26 06:38:41;;;;;;;;;;;5.30;93.60;;;4.61;69.54;98256.38;5082936;28;19927;-82
2022/03/26 06:41:08;;;;;;;;;;;5.30;93.30;;;4.56;68.16;98255.53;5082154;28;19917;-83
2022/03/26 06:43:34;;;;;;;;;;;5.40;92.90;;;4.72;67.06;98257.25;5062896;28;19927;-85
2022/03/26 06:45:59;;;;;;;;;;;5.40;92.70;;;4.93;66.08;98279.88;5065056;28;19916;-83
2022/03/26 06:48:25;;;;;;;;;;;5.50;92.30;;;4.97;65.34;98267.69;5071036;28;19928;-84
2022/03/26 06:50:50;;;;;;;;;;;5.60;92.00;;;5.26;63.95;98287.75;5075710;28;19927;-86
2022/03/26 06:53:16;;;;;;;;;;;5.80;91.60;;;5.19;64.60;98283.34;5095778;28;19924;-85
2022/03/26 06:55:42;;;;;;;;;;;5.90;91.70;;;5.32;65.16;98303.41;5063837;28;19912;-83
2022/03/26 06:58:08;;;;;;;;;;;5.90;91.80;;;5.19;64.97;98280.75;5084711;28;19923;-84
2022/03/26 07:00:33;;;;;;;;;;;5.90;91.70;;;5.21;64.98;98289.47;5068110;28;19931;-85
2022/03/26 07:02:59;;;;;;;;;;;6.00;91.80;;;5.37;63.66;98293.81;5066460;28;20328;-85
2022/03/26 07:05:24;;;;;;;;;;;6.00;91.30;;;5.35;63.80;98274.63;5082182;28;19955;-83
2022/03/26 07:07:50;;;;;;;;;;;6.10;91.30;;;5.48;62.29;98273.72;5084212;28;19951;-86
2022/03/26 07:10:16;;;;;;;;;;;6.20;90.80;;;5.62;63.04;98296.38;5074694;28;19963;-83
2022/03/26 07:12:42;;;;;;;;;;;6.30;91.20;;;5.71;62.73;98307.69;5066436;28;20381;-83
2022/03/26 07:15:08;;;;;;;;;;;6.30;90.90;;;5.68;63.20;98310.28;5086032;28;19923;-84
2022/03/26 07:17:34;;;;;;;;;;;6.30;91.00;;;5.91;62.24;98310.22;5055158;28;19920;-84
2022/03/26 07:19:59;;;;;;;;;;;6.40;90.90;;;5.80;62.37;98290.22;5079424;28;19912;-84
2022/03/26 07:22:25;;;;;;;;;;;6.50;90.90;;;5.78;62.91;98282.38;5048619;28;19947;-85
2022/03/26 07:24:51;;;;;;;;;;;6.60;91.10;;;6.01;61.93;98299.75;5065349;28;19924;-87
2022/03/26 07:27:16;;;;;;;;;;;6.60;90.80;;;6.01;62.28;98304.97;5085165;28;19977;-83
2022/03/26 07:29:42;;;;;;;;;;;6.60;90.80;;;5.78;62.59;98277.13;5064417;28;20111;-83
2022/03/26 07:32:09;;;;;;;;;;;6.70;90.90;;;6.00;62.44;98300.63;5060120;28;19920;-83
2022/03/26 07:34:35;;;;;;;;;;;6.70;90.90;;;6.15;61.26;98313.66;5066377;28;20289;-83
2022/03/26 07:37:01;;;;;;;;;;;6.80;90.50;;;6.23;60.71;98311.88;5047858;28;19925;-84
2022/03/26 07:39:27;;;;;;;;;;;6.90;90.30;;;5.86;60.28;98257.00;5059235;28;19917;-84
2022/03/26 07:41:53;;;;;;;;;;;6.90;90.10;;;6.26;60.45;98319.72;5063980;28;19916;-83
2022/03/26 07:44:19;;;;;;;;;;;6.90;90.00;;;6.45;60.35;98317.84;5069612;28;19924;-83
2022/03/26 07:46:45;;;;;;;;;;;7.00;90.20;;;6.38;60.13;98304.81;5062748;28;19916;-83
2022/03/26 07:49:10;;;;;;;;;;;7.10;90.10;;;6.39;59.63;98306.53;5067613;28;19963;-83
2022/03/26 07:51:36;;;;;;;;;;;7.10;89.70;;;6.30;60.24;98281.28;5067367;28;19920;-83
2022/03/26 07:54:02;;;;;;;;;;;7.20;90.10;;;6.56;59.86;98312.56;5067835;28;20011;-84
2022/03/26 07:56:27;;;;;;;;;;;7.20;90.00;;;6.74;59.21;98323.81;5088324;28;20313;-83
2022/03/26 07:58:54;;;;;;;;;;;7.30;89.50;;;6.70;58.35;98309.84;5055717;28;19927;-83
2022/03/26 08:01:19;;;;;;;;;;;7.40;89.00;;;6.81;57.89;98305.38;5066545;28;20357;-83
2022/03/26 08:03:45;;;;;;;;;;;7.50;88.30;;;6.90;57.72;98317.56;5064853;28;20091;-83
2022/03/26 08:06:10;;;;;;;;;;;7.50;87.90;;;6.96;57.09;98317.50;5064609;28;20436;-83
2022/03/26 08:08:36;;;;;;;;;;;7.60;87.90;;;6.85;56.68;98303.63;5081933;28;19924;-83
2022/03/26 08:11:02;;;;;;;;;;;7.70;87.20;;;6.95;56.01;98284.31;5052852;28;19924;-83
2022/03/26 08:13:28;;;;;;;;;;;7.80;86.50;;;7.28;55.98;98337.38;5062805;28;20276;-83
2022/03/26 08:15:53;;;;;;;;;;;7.90;86.50;;;7.20;55.11;98305.09;5062654;28;20001;-83
2022/03/26 08:18:19;;;;;;;;;;;8.00;86.20;;;7.35;55.33;98306.69;5050459;28;19931;-84
2022/03/26 08:20:45;;;;;;;;;;;8.10;85.90;;;7.60;53.59;98315.19;5078440;28;19923;-83
2022/03/26 08:23:10;;;;;;;;;;;8.20;84.60;;;7.66;53.41;98317.75;5082916;28;20102;-83
2022/03/26 08:28:20;;;;;;;;;;;8.40;85.70;;;7.91;53.07;98325.38;5076835;28;20333;-83
2022/03/26 08:30:46;;;;;;;;;;;8.60;84.10;;;8.16;52.22;98352.22;5063608;28;19916;-83
2022/03/26 08:33:12;;;;;;;;;;;8.60;82.90;;;8.21;52.30;98338.13;5082224;28;19924;-84
2022/03/26 08:35:39;;;;;;;;;;;8.80;83.40;;;8.42;52.38;98349.31;5070224;28;19916;-85
2022/03/26 08:38:05;;;;;;;;;;;8.90;82.80;;;8.66;50.53;98357.75;5060196;28;20282;-83
2022/03/26 08:40:31;;;;;;;;;;;9.00;81.60;;;8.51;50.29;98343.06;5060329;28;19924;-83
2022/03/26 08:42:58;;;;;;;;;;;9.10;80.60;;;8.58;51.51;98340.31;5064405;28;19946;-83
2022/03/26 08:45:28;;;;;;;;;;;9.20;81.40;;;8.78;50.30;98360.22;5067579;28;19930;-83
2022/03/26 08:47:54;;;;;;;;;;;9.20;80.70;;;8.92;50.24;98352.13;5063055;28;19920;-84
2022/03/26 08:50:20;;;;;;;;;;;9.30;80.40;;;8.75;49.77;98308.50;5079850;28;19963;-84
2022/03/26 08:52:47;;;;;;;;;;;9.50;80.00;;;9.01;49.67;98335.28;5052936;28;20044;-83
2022/03/26 08:55:17;;;;;;;;;;;9.60;80.30;;;9.47;48.51;98360.88;5044767;28;20005;-84
2022/03/26 08:57:43;;;;;;;;;;;9.80;79.00;;;9.59;47.99;98360.66;5080398;28;19916;-83
2022/03/26 09:00:10;;;;;;;;;;;10.00;78.90;;;9.60;48.54;98351.88;5046752;28;19925;-83
2022/03/26 09:02:37;;;;;;;;;;;10.10;78.60;;;9.91;47.86;98359.22;5078513;28;19917;-85
2022/03/26 09:05:07;;;;;;;;;;;10.20;78.20;;;9.74;47.66;98327.91;5063987;28;19916;-83
2022/03/26 09:07:33;;;;;;;;;;;10.30;77.30;;;10.07;47.85;98347.47;5083606;28;19924;-84
2022/03/26 09:09:59;;;;;;;;;;;10.50;78.00;;;10.27;46.11;98346.22;5068786;28;19974;-85
2022/03/26 09:12:25;;;;;;;;;;;10.70;75.40;;;10.34;45.41;98341.69;5067115;28;19959;-84
2022/03/26 09:14:50;;;;;;;;;;;10.80;74.30;;;10.06;45.79;98294.78;5070831;28;19946;-84
2022/03/26 09:17:16;;;;;;;;;;;10.90;75.00;;;10.34;45.78;98345.22;5086227;28;20317;-83
2022/03/26 09:19:42;;;;;;;;;;;10.90;75.00;;;10.45;46.55;98353.75;5069576;28;19916;-83
2022/03/26 09:22:07;;;;;;;;;;;10.90;75.40;;;10.53;45.55;98350.94;5066566;28;20328;-83
2022/03/26 09:24:33;;;;;;;;;;;11.00;74.60;;;10.69;45.13;98333.91;5083376;28;20451;-83
2022/03/26 09:26:58;;;;;;;;;;;11.10;74.10;;;10.82;45.45;98350.31;5072921;28;20369;-84
2022/03/26 09:29:24;;;;;;;;;;;11.20;74.50;;;10.96;44.95;98357.03;5083604;28;19977;-83
2022/03/26 09:31:50;;;;;;;;;;;11.30;73.80;;;10.89;45.34;98348.38;5065257;28;19913;-83
2022/03/26 09:34:15;;;;;;;;;;;11.40;73.80;;;10.91;44.91;98345.72;5069839;28;19959;-83
2022/03/26 09:36:41;;;;;;;;;;;11.40;73.10;;;10.94;44.56;98338.59;5065493;28;20481;-83
2022/03/26 09:39:06;;;;;;;;;;;11.40;72.70;;;11.08;43.80;98333.00;5090906;28;19974;-84
2022/03/26 09:41:32;;;;;;;;;;;11.60;71.80;;;11.36;42.35;98343.75;5092756;28;19969;-83
2022/03/26 09:43:58;;;;;;;;;;;11.70;70.50;;;11.34;43.84;98352.59;5067395;28;20324;-84
2022/03/26 09:46:24;;;;;;;;;;;11.70;71.60;;;11.30;44.17;98350.97;5067591;28;19920;-84
2022/03/26 09:48:50;;;;;;;;;;;11.70;71.80;;;11.19;45.28;98328.31;5051419;28;19916;-84
2022/03/26 09:51:19;;;;;;;;;;;11.70;73.50;;;11.27;45.32;98328.16;5068387;28;20187;-83
2022/03/26 09:53:45;;;;;;;;;;;11.80;73.70;;;11.46;44.08;98334.69;5068097;28;19935;-83
2022/03/26 09:56:11;;;;;;;;;;;11.90;73.00;;;11.62;43.01;98321.09;5083163;28;19924;-83
2022/03/26 09:58:37;;;;;;;;;;;12.00;70.80;;;11.86;42.66;98335.41;5068627;28;19920;-83
2022/03/26 10:01:02;;;;;;;;;;;12.10;70.30;;;11.84;42.25;98311.69;5067521;28;19962;-84
2022/03/26 10:03:28;;;;;;;;;;;12.30;69.70;;;12.15;42.95;98344.34;5082730;28;19916;-83
2022/03/26 10:06:04;;;;;;;;;;;12.40;70.10;;;12.30;42.36;98349.19;5070576;28;19920;-84
2022/03/26 10:08:34;;;;;;;;;;;12.50;69.60;;;12.27;42.28;98338.69;5068413;28;19928;-83
2022/03/26 10:10:59;;;;;;;;;;;12.60;69.00;;;12.29;42.49;98323.69;5066427;28;19967;-83
2022/03/26 10:13:43;;;;;;;;;;;12.70;69.50;;;12.23;42.37;98313.25;5061855;28;19945;-83
2022/03/26 10:16:10;;;;;;;;;;;12.70;69.40;;;12.29;43.51;98325.44;5085182;28;19916;-83
2022/03/26 10:18:38;;;;;;;;;;;12.70;70.70;;;12.27;42.46;98301.66;5070962;28;19916;-84
2022/03/26 10:21:08;;;;;;;;;;;12.80;69.50;;;12.69;40.59;98325.13;5086133;28;19919;-84
2022/03/26 10:23:34;;;;;;;;;;;12.90;67.80;;;12.87;40.89;98325.47;5069890;28;20296;-84
2022/03/26 10:26:11;;;;;;;;;;;13.10;67.40;;;13.01;41.15;98310.00;5069888;28;19981;-83
2022/03/26 10:28:40;;;;;;;;;;;13.30;68.80;;;13.12;40.38;98307.88;5069026;28;19962;-84
2022/03/26 10:34:09;;;;;;;;;;;13.50;67.40;;;13.36;40.79;98310.66;5077001;28;20014;-83
2022/03/26 10:36:40;;;;;;;;;;;13.60;67.40;;;13.49;41.22;98321.69;5065686;28;19976;-84
2022/03/26 10:39:13;;;;;;;;;;;13.80;67.80;;;13.70;39.93;98325.41;5051804;28;19916;-83
2022/03/26 10:41:38;;;;;;;;;;;13.80;66.30;;;13.32;40.10;98277.25;5067476;28;19916;-83
2022/03/26 10:44:07;;;;;;;;;;;13.90;65.80;;;13.37;41.01;98301.81;5080973;28;19943;-84
2022/03/26 10:46:44;;;;;;;;;;;13.80;67.00;;;13.43;41.68;98314.81;5064552;28;19916;-83
2022/03/26 10:49:09;;;;;;;;;;;13.80;67.90;;;13.40;40.31;98293.72;5069979;28;20331;-83
2022/03/26 10:51:36;;;;;;;;;;;13.80;66.50;;;13.60;39.38;98306.28;5067981;28;20273;-83
2022/03/26 10:54:09;;;;;;;;;;;13.90;64.90;;;13.63;40.24;98305.34;5070714;28;19946;-83
2022/03/26 10:56:37;;;;;;;;;;;14.00;65.80;;;13.69;39.56;98291.84;5050322;28;19920;-84
2022/03/26 10:59:02;;;;;;;;;;;14.00;65.50;;;13.73;39.99;98309.41;5065395;28;19970;-85
2022/03/26 11:01:28;;;;;;;;;;;14.00;65.10;;;13.69;39.26;98284.78;5065580;28;19916;-84
2022/03/26 11:03:54;;;;;;;;;;;14.10;65.00;;;13.89;38.89;98315.00;5049603;28;19916;-83
2022/03/26 11:06:24;;;;;;;;;;;14.20;63.90;;;13.78;39.63;98301.25;5063460;28;21135;-84
2022/03/26 11:08:51;;;;;;;;;;;14.20;64.60;;;13.89;39.95;98299.97;5081669;28;19922;-84
2022/03/26 11:11:20;;;;;;;;;;;14.20;65.20;;;13.87;38.83;98285.03;5067943;28;19923;-85
2022/03/26 11:13:48;;;;;;;;;;;14.30;63.50;;;14.09;39.76;98275.38;5091367;28;19924;-84
2022/03/26 11:16:34;;;;;;;;;;;14.40;65.20;;;14.35;37.69;98307.16;5084464;28;19920;-84
2022/03/26 11:19:23;;;;;;;;;;;14.60;61.80;;;14.54;37.77;98302.88;5080287;28;19962;-84
2022/03/26 11:22:28;;;;;;;;;;;14.70;61.90;;;14.51;35.83;98287.06;5081452;28;19990;-84
2022/03/26 11:24:57;;;;;;;;;;;14.80;59.90;;;14.53;37.12;98293.16;5083301;28;20488;-84
2022/03/26 11:27:47;;;;;;;;;;;14.80;60.70;;;14.49;36.73;98288.91;5080660;28;20478;-84
2022/03/26 11:30:28;;;;;;;;;;;14.80;60.30;;;14.50;35.69;98291.50;5080360;28;20373;-84
2022/03/26 11:32:55;;;;;;;;;;;14.80;58.70;;;14.33;35.52;98243.53;5057627;28;19920;-84